Terminal Aerodrome Forecast
Issued by NWS

Home | Current Version | Previous Version | Text Only | Print | Product List | Glossary On
Versions: 1 2 3 4 5 6 7 8 9 10 11 12 13 14 15 16 17 18 19 20 21 22 23 24 25 26 27 28 29 30 31 32 33
000
FTUS43 KLOT 061300 AAA
TAFORD
TAF AMD
KORD 061401Z 0614/0718 20014G21KT P6SM SCT150
     FM061800 22016G24KT P6SM SCT035 BKN080
     FM070100 23011KT P6SM FEW015 BKN100
     FM071500 24012G19KT P6SM SCT080=

USA.gov is the U.S. government's official web portal to all federal, state and local government web resources and services.